This is the latest recevied weather packets stored in our database for station/object N7QNM-13. If no packets are shown the sender has not sent any weather packets the latest 10 day(s).
| Time | Temp. | Humidity | Pressure | Rain* | Wind** | Luminosity | Snow |
|---|---|---|---|---|---|---|---|
| 1777825836 | 21.11° C | 48% | 1013.2 hPa | 0 mm | - | 557 W/m² | - |
| 1777822836 | 20° C | 51% | 1013.4 hPa | 0 mm | - | 411 W/m² | - |
| 1777819837 | 16.67° C | 66% | 1013.5 hPa | 0 mm | - | 225 W/m² | - |
| 1777817437 | 12.78° C | 83% | 1013.3 hPa | 0 mm | - | 148 W/m² | - |
| 1777816238 | 10.56° C | 84% | 1013.2 hPa | 0 mm | - | 101 W/m² | - |
| 1777814438 | 8.89° C | 85% | 1013.1 hPa | 0 mm | - | 40 W/m² | - |
| 1777813838 | 8.33° C | 84% | 1013 hPa | 0 mm | - | 25 W/m² | - |
| 1777802440 | 11.11° C | 76% | 1012.9 hPa | 0 mm | - | 0 W/m² | - |
| 1777801840 | 11.11° C | 74% | 1012.8 hPa | 0 mm | - | 0 W/m² | - |
| 1777798241 | 13.33° C | 65% | 1012.7 hPa | 0 mm | - | 0 W/m² | - |
| 1777793442 | 14.44° C | 60% | 1012.7 hPa | 0 mm | - | 0 W/m² | - |
| 1777789843 | 15° C | 59% | 1012 hPa | 0 mm | - | 0 W/m² | - |
| 1777789243 | 15° C | 61% | 1012 hPa | 0 mm | - | 0 W/m² | - |
| 1777786263 | 15.56° C | 59% | 1011.8 hPa | 0 mm | - | 0 W/m² | - |
| 1777784444 | 17.22° C | 54% | 1011.7 hPa | 0 mm | - | 0 W/m² | - |
| 1777783848 | 17.78° C | 54% | 1011.7 hPa | 0 mm | - | 0 W/m² | - |
| 1777783247 | 18.33° C | 53% | 1011.6 hPa | 0 mm | - | 0 W/m² | - |
| 1777782666 | 18.89° C | 51% | 1011.5 hPa | 0 mm | - | 0 W/m² | - |
| 1777780847 | 20.56° C | 45% | 1011.2 hPa | 0 mm | - | 0 W/m² | - |
| 1777780246 | 20.56° C | 44% | 1011.1 hPa | 0 mm | - | 0 W/m² | - |
| 1777779645 | 21.67° C | 46% | 1010.9 hPa | 0 mm | - | 0 W/m² | - |
| 1777776665 | 26.67° C | 37% | 1010.2 hPa | 0 mm | - | 20 W/m² | - |
| 1777776066 | 27.78° C | 36% | 1010.1 hPa | 0 mm | - | 31 W/m² | - |
| 1777774266 | 28.89° C | 35% | 1010 hPa | 0 mm | - | 69 W/m² | - |
| 1777773066 | 28.89° C | 33% | 1009.9 hPa | 0 mm | - | 122 W/m² | - |
* Rain latest hour (hover to see other rain measurements)
** Current wind speed in m/s (hover to see current wind gust speed)